sensor_id;sensor_type;location;lat;lon;timestamp;temperature;humidity
76607;DHT22;65498;50.916;4.698;2022-12-29T00:01:01;23.00;45.00
76607;DHT22;65498;50.916;4.698;2022-12-29T00:03:28;23.00;45.00
76607;DHT22;65498;50.916;4.698;2022-12-29T00:05:57;23.00;45.10
76607;DHT22;65498;50.916;4.698;2022-12-29T00:08:24;23.00;45.00
76607;DHT22;65498;50.916;4.698;2022-12-29T00:10:54;23.00;44.90
76607;DHT22;65498;50.916;4.698;2022-12-29T00:13:22;23.00;45.00
76607;DHT22;65498;50.916;4.698;2022-12-29T00:16:07;23.00;44.90
76607;DHT22;65498;50.916;4.698;2022-12-29T00:18:35;23.00;44.90
76607;DHT22;65498;50.916;4.698;2022-12-29T00:21:02;23.00;45.00
76607;DHT22;65498;50.916;4.698;2022-12-29T00:23:48;23.00;45.00
76607;DHT22;65498;50.916;4.698;2022-12-29T00:26:35;23.00;44.90
76607;DHT22;65498;50.916;4.698;2022-12-29T00:29:21;23.00;45.00
76607;DHT22;65498;50.916;4.698;2022-12-29T00:32:09;23.00;45.50
76607;DHT22;65498;50.916;4.698;2022-12-29T00:34:54;22.90;45.00
76607;DHT22;65498;50.916;4.698;2022-12-29T00:37:43;23.00;45.00
76607;DHT22;65498;50.916;4.698;2022-12-29T00:40:25;22.90;45.00
76607;DHT22;65498;50.916;4.698;2022-12-29T00:43:11;22.90;44.90
76607;DHT22;65498;50.916;4.698;2022-12-29T00:45:57;23.00;45.60
76607;DHT22;65498;50.916;4.698;2022-12-29T00:48:24;23.10;45.30
76607;DHT22;65498;50.916;4.698;2022-12-29T00:51:10;23.10;44.40
76607;DHT22;65498;50.916;4.698;2022-12-29T00:53:37;23.10;44.50
76607;DHT22;65498;50.916;4.698;2022-12-29T00:56:05;23.10;44.50
76607;DHT22;65498;50.916;4.698;2022-12-29T00:58:32;23.00;44.50
76607;DHT22;65498;50.916;4.698;2022-12-29T01:01:05;23.00;44.60
76607;DHT22;65498;50.916;4.698;2022-12-29T01:03:35;23.00;44.50
76607;DHT22;65498;50.916;4.698;2022-12-29T01:06:09;23.10;44.50
76607;DHT22;65498;50.916;4.698;2022-12-29T01:08:36;23.00;44.50
76607;DHT22;65498;50.916;4.698;2022-12-29T01:11:09;23.10;44.40
76607;DHT22;65498;50.916;4.698;2022-12-29T01:13:38;23.00;44.40
76607;DHT22;65498;50.916;4.698;2022-12-29T01:16:07;23.00;44.50
76607;DHT22;65498;50.916;4.698;2022-12-29T01:18:35;23.00;45.10
76607;DHT22;65498;50.916;4.698;2022-12-29T01:21:04;23.00;44.30
76607;DHT22;65498;50.916;4.698;2022-12-29T01:23:32;23.00;44.40
76607;DHT22;65498;50.916;4.698;2022-12-29T01:26:19;23.00;44.30
76607;DHT22;65498;50.916;4.698;2022-12-29T01:28:33;23.00;44.40
76607;DHT22;65498;50.916;4.698;2022-12-29T01:31:01;23.00;44.30
76607;DHT22;65498;50.916;4.698;2022-12-29T01:33:28;23.00;44.20
76607;DHT22;65498;50.916;4.698;2022-12-29T01:36:06;23.00;44.30
76607;DHT22;65498;50.916;4.698;2022-12-29T01:38:30;23.00;44.40
76607;DHT22;65498;50.916;4.698;2022-12-29T01:40:57;23.00;44.30
76607;DHT22;65498;50.916;4.698;2022-12-29T01:43:48;23.00;44.40
76607;DHT22;65498;50.916;4.698;2022-12-29T01:46:26;22.90;44.40
76607;DHT22;65498;50.916;4.698;2022-12-29T01:49:11;23.00;44.50
76607;DHT22;65498;50.916;4.698;2022-12-29T01:51:26;22.90;44.50
76607;DHT22;65498;50.916;4.698;2022-12-29T01:53:56;22.90;44.50
76607;DHT22;65498;50.916;4.698;2022-12-29T01:56:25;22.90;44.60
76607;DHT22;65498;50.916;4.698;2022-12-29T01:58:56;22.90;44.60
76607;DHT22;65498;50.916;4.698;2022-12-29T02:01:23;22.90;44.60
76607;DHT22;65498;50.916;4.698;2022-12-29T02:03:51;23.00;44.60
76607;DHT22;65498;50.916;4.698;2022-12-29T02:06:25;23.00;44.70
76607;DHT22;65498;50.916;4.698;2022-12-29T02:08:54;23.00;44.70
76607;DHT22;65498;50.916;4.698;2022-12-29T02:11:25;22.90;44.70
76607;DHT22;65498;50.916;4.698;2022-12-29T02:13:53;22.90;44.70
76607;DHT22;65498;50.916;4.698;2022-12-29T02:22:08;22.90;44.80
76607;DHT22;65498;50.916;4.698;2022-12-29T02:27:53;22.90;44.70
76607;DHT22;65498;50.916;4.698;2022-12-29T02:30:37;22.90;44.60
76607;DHT22;65498;50.916;4.698;2022-12-29T02:33:13;22.90;44.60
76607;DHT22;65498;50.916;4.698;2022-12-29T02:35:56;22.90;44.70
76607;DHT22;65498;50.916;4.698;2022-12-29T02:42:06;22.90;44.80
76607;DHT22;65498;50.916;4.698;2022-12-29T02:46:36;22.90;44.80
76607;DHT22;65498;50.916;4.698;2022-12-29T02:49:13;22.90;44.80
76607;DHT22;65498;50.916;4.698;2022-12-29T02:52:01;22.90;47.00
76607;DHT22;65498;50.916;4.698;2022-12-29T02:54:29;22.80;46.20
76607;DHT22;65498;50.916;4.698;2022-12-29T02:59:54;22.70;46.30
76607;DHT22;65498;50.916;4.698;2022-12-29T03:05:35;22.70;46.20
76607;DHT22;65498;50.916;4.698;2022-12-29T03:08:14;22.70;46.20
76607;DHT22;65498;50.916;4.698;2022-12-29T03:11:03;22.60;46.20
76607;DHT22;65498;50.916;4.698;2022-12-29T03:16:35;22.50;46.30
76607;DHT22;65498;50.916;4.698;2022-12-29T03:21:44;22.40;46.30
76607;DHT22;65498;50.916;4.698;2022-12-29T03:24:34;22.40;46.30
76607;DHT22;65498;50.916;4.698;2022-12-29T03:27:03;22.40;46.70
76607;DHT22;65498;50.916;4.698;2022-12-29T03:29:39;22.40;46.50
76607;DHT22;65498;50.916;4.698;2022-12-29T03:32:03;22.40;46.40
76607;DHT22;65498;50.916;4.698;2022-12-29T03:34:33;22.40;46.60
76607;DHT22;65498;50.916;4.698;2022-12-29T03:37:17;22.30;46.30
76607;DHT22;65498;50.916;4.698;2022-12-29T03:39:42;22.30;46.30
76607;DHT22;65498;50.916;4.698;2022-12-29T03:42:15;22.30;46.60
76607;DHT22;65498;50.916;4.698;2022-12-29T03:44:45;22.30;46.50
76607;DHT22;65498;50.916;4.698;2022-12-29T03:47:14;22.30;46.50
76607;DHT22;65498;50.916;4.698;2022-12-29T03:49:42;22.30;46.50
76607;DHT22;65498;50.916;4.698;2022-12-29T03:52:09;22.30;46.40
76607;DHT22;65498;50.916;4.698;2022-12-29T03:54:37;22.20;46.40
76607;DHT22;65498;50.916;4.698;2022-12-29T03:57:04;22.30;46.70
76607;DHT22;65498;50.916;4.698;2022-12-29T03:59:32;22.20;46.50
76607;DHT22;65498;50.916;4.698;2022-12-29T04:01:59;22.20;46.70
76607;DHT22;65498;50.916;4.698;2022-12-29T04:04:27;22.20;46.60
76607;DHT22;65498;50.916;4.698;2022-12-29T04:06:54;22.20;46.80
76607;DHT22;65498;50.916;4.698;2022-12-29T04:09:22;22.20;47.00
76607;DHT22;65498;50.916;4.698;2022-12-29T04:11:49;22.20;46.70
76607;DHT22;65498;50.916;4.698;2022-12-29T04:14:17;22.20;46.70
76607;DHT22;65498;50.916;4.698;2022-12-29T04:16:44;22.20;46.60
76607;DHT22;65498;50.916;4.698;2022-12-29T04:19:12;22.20;46.50
76607;DHT22;65498;50.916;4.698;2022-12-29T04:21:39;22.20;47.30
76607;DHT22;65498;50.916;4.698;2022-12-29T04:24:07;22.20;46.60
76607;DHT22;65498;50.916;4.698;2022-12-29T04:26:35;22.20;46.60
76607;DHT22;65498;50.916;4.698;2022-12-29T04:29:02;22.20;46.60
76607;DHT22;65498;50.916;4.698;2022-12-29T04:31:30;22.20;46.20
76607;DHT22;65498;50.916;4.698;2022-12-29T04:33:57;22.20;46.20
76607;DHT22;65498;50.916;4.698;2022-12-29T04:36:26;22.20;46.30
76607;DHT22;65498;50.916;4.698;2022-12-29T04:38:54;22.20;46.30
76607;DHT22;65498;50.916;4.698;2022-12-29T04:41:21;22.20;46.30
76607;DHT22;65498;50.916;4.698;2022-12-29T04:43:49;22.20;46.30
76607;DHT22;65498;50.916;4.698;2022-12-29T04:46:17;22.20;46.20
76607;DHT22;65498;50.916;4.698;2022-12-29T04:48:44;22.20;46.30
76607;DHT22;65498;50.916;4.698;2022-12-29T04:51:12;22.30;46.10
76607;DHT22;65498;50.916;4.698;2022-12-29T04:53:40;22.30;46.70
76607;DHT22;65498;50.916;4.698;2022-12-29T04:56:08;22.20;46.20
76607;DHT22;65498;50.916;4.698;2022-12-29T04:58:36;22.30;46.00
76607;DHT22;65498;50.916;4.698;2022-12-29T05:01:03;22.30;46.20
76607;DHT22;65498;50.916;4.698;2022-12-29T05:03:31;22.30;46.80
76607;DHT22;65498;50.916;4.698;2022-12-29T05:05:58;22.30;46.00
76607;DHT22;65498;50.916;4.698;2022-12-29T05:08:26;22.30;46.10
76607;DHT22;65498;50.916;4.698;2022-12-29T05:10:53;22.20;46.10
76607;DHT22;65498;50.916;4.698;2022-12-29T05:13:21;22.20;45.90
76607;DHT22;65498;50.916;4.698;2022-12-29T05:15:53;22.30;46.00
76607;DHT22;65498;50.916;4.698;2022-12-29T05:18:20;22.30;46.60
76607;DHT22;65498;50.916;4.698;2022-12-29T05:20:48;22.30;45.90
76607;DHT22;65498;50.916;4.698;2022-12-29T05:23:16;22.30;45.80
76607;DHT22;65498;50.916;4.698;2022-12-29T05:25:44;22.30;45.80
76607;DHT22;65498;50.916;4.698;2022-12-29T05:28:14;22.20;46.00
76607;DHT22;65498;50.916;4.698;2022-12-29T05:30:42;22.30;45.80
76607;DHT22;65498;50.916;4.698;2022-12-29T05:33:09;22.30;45.50
76607;DHT22;65498;50.916;4.698;2022-12-29T05:35:38;22.30;45.60
76607;DHT22;65498;50.916;4.698;2022-12-29T05:38:05;22.20;45.50
76607;DHT22;65498;50.916;4.698;2022-12-29T05:40:33;22.20;45.50
76607;DHT22;65498;50.916;4.698;2022-12-29T05:43:00;22.20;45.70
76607;DHT22;65498;50.916;4.698;2022-12-29T05:45:28;22.20;45.60
76607;DHT22;65498;50.916;4.698;2022-12-29T05:47:55;22.20;45.30
76607;DHT22;65498;50.916;4.698;2022-12-29T05:50:23;22.20;45.50
76607;DHT22;65498;50.916;4.698;2022-12-29T05:52:50;22.20;45.30
76607;DHT22;65498;50.916;4.698;2022-12-29T05:55:18;22.20;45.40
76607;DHT22;65498;50.916;4.698;2022-12-29T05:57:45;22.20;45.10
76607;DHT22;65498;50.916;4.698;2022-12-29T06:00:14;22.20;45.30
76607;DHT22;65498;50.916;4.698;2022-12-29T06:02:41;22.20;45.20
76607;DHT22;65498;50.916;4.698;2022-12-29T06:05:09;22.20;45.20
76607;DHT22;65498;50.916;4.698;2022-12-29T06:07:37;22.20;45.10
76607;DHT22;65498;50.916;4.698;2022-12-29T06:10:05;22.20;45.00
76607;DHT22;65498;50.916;4.698;2022-12-29T06:12:33;22.20;44.90
76607;DHT22;65498;50.916;4.698;2022-12-29T06:15:00;22.20;44.90
76607;DHT22;65498;50.916;4.698;2022-12-29T06:17:28;22.20;44.90
76607;DHT22;65498;50.916;4.698;2022-12-29T06:19:55;22.20;44.70
76607;DHT22;65498;50.916;4.698;2022-12-29T06:22:23;22.20;44.80
76607;DHT22;65498;50.916;4.698;2022-12-29T06:24:50;22.20;45.50
76607;DHT22;65498;50.916;4.698;2022-12-29T06:27:18;22.20;44.70
76607;DHT22;65498;50.916;4.698;2022-12-29T06:29:45;22.20;44.70
76607;DHT22;65498;50.916;4.698;2022-12-29T06:32:13;22.20;44.70
76607;DHT22;65498;50.916;4.698;2022-12-29T06:34:41;22.20;44.60
76607;DHT22;65498;50.916;4.698;2022-12-29T06:37:08;22.20;44.50
76607;DHT22;65498;50.916;4.698;2022-12-29T06:39:36;22.20;44.40
76607;DHT22;65498;50.916;4.698;2022-12-29T06:42:03;22.20;44.40
76607;DHT22;65498;50.916;4.698;2022-12-29T06:44:31;22.10;44.40
76607;DHT22;65498;50.916;4.698;2022-12-29T06:46:58;22.10;44.40
76607;DHT22;65498;50.916;4.698;2022-12-29T06:49:26;22.10;44.30
76607;DHT22;65498;50.916;4.698;2022-12-29T06:51:53;22.10;44.20
76607;DHT22;65498;50.916;4.698;2022-12-29T06:54:21;22.10;44.30
76607;DHT22;65498;50.916;4.698;2022-12-29T06:56:48;22.10;44.20
76607;DHT22;65498;50.916;4.698;2022-12-29T06:59:16;22.10;44.20
76607;DHT22;65498;50.916;4.698;2022-12-29T07:01:43;22.10;44.00
76607;DHT22;65498;50.916;4.698;2022-12-29T07:04:11;22.10;44.00
76607;DHT22;65498;50.916;4.698;2022-12-29T07:06:38;22.10;44.20
76607;DHT22;65498;50.916;4.698;2022-12-29T07:09:08;22.10;44.00
76607;DHT22;65498;50.916;4.698;2022-12-29T07:11:36;22.10;43.80
76607;DHT22;65498;50.916;4.698;2022-12-29T07:14:04;22.10;43.80
76607;DHT22;65498;50.916;4.698;2022-12-29T07:16:32;22.10;43.80
76607;DHT22;65498;50.916;4.698;2022-12-29T07:19:00;22.10;43.60
76607;DHT22;65498;50.916;4.698;2022-12-29T07:21:28;22.10;43.60
76607;DHT22;65498;50.916;4.698;2022-12-29T07:23:56;22.20;43.50
76607;DHT22;65498;50.916;4.698;2022-12-29T07:26:23;22.10;43.40
76607;DHT22;65498;50.916;4.698;2022-12-29T07:28:51;22.10;43.70
76607;DHT22;65498;50.916;4.698;2022-12-29T07:31:21;22.10;43.30
76607;DHT22;65498;50.916;4.698;2022-12-29T07:33:49;22.10;43.20
76607;DHT22;65498;50.916;4.698;2022-12-29T07:36:17;22.10;43.40
76607;DHT22;65498;50.916;4.698;2022-12-29T07:38:44;22.10;43.60
76607;DHT22;65498;50.916;4.698;2022-12-29T07:41:12;22.10;43.20
76607;DHT22;65498;50.916;4.698;2022-12-29T07:43:40;22.10;43.10
76607;DHT22;65498;50.916;4.698;2022-12-29T07:46:07;22.10;43.10
76607;DHT22;65498;50.916;4.698;2022-12-29T07:48:36;22.10;43.10
76607;DHT22;65498;50.916;4.698;2022-12-29T07:51:03;22.10;43.10
76607;DHT22;65498;50.916;4.698;2022-12-29T07:53:31;22.10;43.10
76607;DHT22;65498;50.916;4.698;2022-12-29T07:55:59;22.10;42.90
76607;DHT22;65498;50.916;4.698;2022-12-29T07:58:26;22.10;43.10
76607;DHT22;65498;50.916;4.698;2022-12-29T08:00:55;22.10;42.90
76607;DHT22;65498;50.916;4.698;2022-12-29T08:03:23;22.10;42.90
76607;DHT22;65498;50.916;4.698;2022-12-29T08:05:52;22.10;43.10
76607;DHT22;65498;50.916;4.698;2022-12-29T08:08:20;22.10;43.20
76607;DHT22;65498;50.916;4.698;2022-12-29T08:10:48;22.10;43.10
76607;DHT22;65498;50.916;4.698;2022-12-29T08:13:15;22.20;43.00
76607;DHT22;65498;50.916;4.698;2022-12-29T08:15:43;22.10;43.10
76607;DHT22;65498;50.916;4.698;2022-12-29T08:18:10;22.10;43.10
76607;DHT22;65498;50.916;4.698;2022-12-29T08:20:38;22.10;43.00
76607;DHT22;65498;50.916;4.698;2022-12-29T08:23:05;22.10;43.10
76607;DHT22;65498;50.916;4.698;2022-12-29T08:25:33;22.10;42.90
76607;DHT22;65498;50.916;4.698;2022-12-29T08:28:00;22.10;43.10
76607;DHT22;65498;50.916;4.698;2022-12-29T08:30:28;22.10;42.90
76607;DHT22;65498;50.916;4.698;2022-12-29T08:32:56;22.10;42.70
76607;DHT22;65498;50.916;4.698;2022-12-29T08:35:23;22.10;42.70
76607;DHT22;65498;50.916;4.698;2022-12-29T08:37:51;22.10;42.70
76607;DHT22;65498;50.916;4.698;2022-12-29T08:40:18;22.10;42.40
76607;DHT22;65498;50.916;4.698;2022-12-29T08:42:46;22.10;42.70
76607;DHT22;65498;50.916;4.698;2022-12-29T08:45:13;22.10;42.50
76607;DHT22;65498;50.916;4.698;2022-12-29T08:47:41;22.10;42.60
76607;DHT22;65498;50.916;4.698;2022-12-29T08:50:09;22.10;42.70
76607;DHT22;65498;50.916;4.698;2022-12-29T08:52:37;22.10;42.70
76607;DHT22;65498;50.916;4.698;2022-12-29T08:55:05;22.10;42.60
76607;DHT22;65498;50.916;4.698;2022-12-29T08:57:52;22.10;43.00
76607;DHT22;65498;50.916;4.698;2022-12-29T09:00:19;22.10;42.80
76607;DHT22;65498;50.916;4.698;2022-12-29T09:02:47;22.00;42.10
76607;DHT22;65498;50.916;4.698;2022-12-29T09:05:14;21.90;42.10
76607;DHT22;65498;50.916;4.698;2022-12-29T09:07:42;21.90;42.00
76607;DHT22;65498;50.916;4.698;2022-12-29T09:10:09;21.90;42.00
76607;DHT22;65498;50.916;4.698;2022-12-29T09:12:37;21.90;42.60
76607;DHT22;65498;50.916;4.698;2022-12-29T09:15:06;21.90;42.60
76607;DHT22;65498;50.916;4.698;2022-12-29T09:17:34;22.00;42.10
76607;DHT22;65498;50.916;4.698;2022-12-29T09:20:14;22.00;42.40
76607;DHT22;65498;50.916;4.698;2022-12-29T09:22:43;22.00;42.20
76607;DHT22;65498;50.916;4.698;2022-12-29T09:25:12;22.00;42.20
76607;DHT22;65498;50.916;4.698;2022-12-29T09:27:39;22.00;42.00
76607;DHT22;65498;50.916;4.698;2022-12-29T09:30:09;22.10;42.00
76607;DHT22;65498;50.916;4.698;2022-12-29T09:32:37;22.00;42.40
76607;DHT22;65498;50.916;4.698;2022-12-29T09:35:05;22.10;41.50
76607;DHT22;65498;50.916;4.698;2022-12-29T09:37:32;22.10;41.60
76607;DHT22;65498;50.916;4.698;2022-12-29T09:40:00;22.10;41.70
76607;DHT22;65498;50.916;4.698;2022-12-29T09:42:41;22.10;41.60
76607;DHT22;65498;50.916;4.698;2022-12-29T09:45:10;22.10;41.80
76607;DHT22;65498;50.916;4.698;2022-12-29T09:47:36;22.00;41.60
76607;DHT22;65498;50.916;4.698;2022-12-29T09:50:20;22.10;41.50
76607;DHT22;65498;50.916;4.698;2022-12-29T09:52:49;22.10;41.60
76607;DHT22;65498;50.916;4.698;2022-12-29T09:55:22;22.10;41.70
76607;DHT22;65498;50.916;4.698;2022-12-29T09:57:59;22.10;41.70
76607;DHT22;65498;50.916;4.698;2022-12-29T10:03:19;22.10;41.70
76607;DHT22;65498;50.916;4.698;2022-12-29T10:06:06;22.10;41.70
76607;DHT22;65498;50.916;4.698;2022-12-29T10:08:40;22.10;41.70
76607;DHT22;65498;50.916;4.698;2022-12-29T10:25:00;22.00;41.80
76607;DHT22;65498;50.916;4.698;2022-12-29T10:27:32;22.10;41.70
76607;DHT22;65498;50.916;4.698;2022-12-29T10:30:01;22.00;41.70
76607;DHT22;65498;50.916;4.698;2022-12-29T10:32:38;22.10;41.70
76607;DHT22;65498;50.916;4.698;2022-12-29T10:35:12;22.10;41.70
76607;DHT22;65498;50.916;4.698;2022-12-29T10:37:46;22.10;42.20
76607;DHT22;65498;50.916;4.698;2022-12-29T10:40:25;22.10;41.90
76607;DHT22;65498;50.916;4.698;2022-12-29T10:42:54;22.10;41.70
76607;DHT22;65498;50.916;4.698;2022-12-29T10:45:22;22.10;42.20
76607;DHT22;65498;50.916;4.698;2022-12-29T10:47:54;22.00;42.00
76607;DHT22;65498;50.916;4.698;2022-12-29T10:50:22;22.00;42.60
76607;DHT22;65498;50.916;4.698;2022-12-29T10:52:50;22.10;42.50
76607;DHT22;65498;50.916;4.698;2022-12-29T10:55:25;22.00;42.80
76607;DHT22;65498;50.916;4.698;2022-12-29T10:57:49;22.00;42.20
76607;DHT22;65498;50.916;4.698;2022-12-29T11:00:21;22.10;42.00
76607;DHT22;65498;50.916;4.698;2022-12-29T11:08:01;22.20;41.70
76607;DHT22;65498;50.916;4.698;2022-12-29T11:10:38;22.30;41.50
76607;DHT22;65498;50.916;4.698;2022-12-29T11:13:18;22.40;41.30
76607;DHT22;65498;50.916;4.698;2022-12-29T11:15:49;22.50;41.10
76607;DHT22;65498;50.916;4.698;2022-12-29T11:20:50;22.60;40.70
76607;DHT22;65498;50.916;4.698;2022-12-29T11:23:24;22.60;40.40
76607;DHT22;65498;50.916;4.698;2022-12-29T11:28:38;22.70;40.30
76607;DHT22;65498;50.916;4.698;2022-12-29T11:31:07;22.70;40.10
76607;DHT22;65498;50.916;4.698;2022-12-29T11:33:37;22.70;40.20
76607;DHT22;65498;50.916;4.698;2022-12-29T11:36:22;22.70;40.10
76607;DHT22;65498;50.916;4.698;2022-12-29T11:38:52;22.70;40.10
76607;DHT22;65498;50.916;4.698;2022-12-29T11:41:25;22.70;40.00
76607;DHT22;65498;50.916;4.698;2022-12-29T11:43:49;22.70;39.90
76607;DHT22;65498;50.916;4.698;2022-12-29T11:46:29;22.80;39.90
76607;DHT22;65498;50.916;4.698;2022-12-29T11:48:47;22.80;39.90
76607;DHT22;65498;50.916;4.698;2022-12-29T11:51:41;22.80;39.90
76607;DHT22;65498;50.916;4.698;2022-12-29T11:54:09;22.80;39.80
76607;DHT22;65498;50.916;4.698;2022-12-29T11:56:41;22.80;39.90
76607;DHT22;65498;50.916;4.698;2022-12-29T12:04:49;22.80;39.90
76607;DHT22;65498;50.916;4.698;2022-12-29T12:07:24;22.80;40.00
76607;DHT22;65498;50.916;4.698;2022-12-29T12:09:54;22.80;40.30
76607;DHT22;65498;50.916;4.698;2022-12-29T12:12:24;22.80;40.10
76607;DHT22;65498;50.916;4.698;2022-12-29T12:14:55;22.80;40.10
76607;DHT22;65498;50.916;4.698;2022-12-29T12:17:49;22.80;39.80
76607;DHT22;65498;50.916;4.698;2022-12-29T12:23:22;22.80;39.90
76607;DHT22;65498;50.916;4.698;2022-12-29T12:28:50;22.90;40.50
76607;DHT22;65498;50.916;4.698;2022-12-29T12:31:33;22.80;39.90
76607;DHT22;65498;50.916;4.698;2022-12-29T12:33:50;22.80;39.90
76607;DHT22;65498;50.916;4.698;2022-12-29T12:53:03;22.90;40.00
76607;DHT22;65498;50.916;4.698;2022-12-29T13:01:10;22.90;39.90
76607;DHT22;65498;50.916;4.698;2022-12-29T13:09:18;23.00;39.80
76607;DHT22;65498;50.916;4.698;2022-12-29T13:12:00;23.00;39.90
76607;DHT22;65498;50.916;4.698;2022-12-29T13:14:24;22.90;39.90
76607;DHT22;65498;50.916;4.698;2022-12-29T13:19:56;22.90;40.20
76607;DHT22;65498;50.916;4.698;2022-12-29T13:22:48;23.00;41.10
76607;DHT22;65498;50.916;4.698;2022-12-29T13:33:39;23.00;41.90
76607;DHT22;65498;50.916;4.698;2022-12-29T13:36:24;23.00;41.30
76607;DHT22;65498;50.916;4.698;2022-12-29T13:39:02;23.00;41.70
76607;DHT22;65498;50.916;4.698;2022-12-29T13:41:29;23.00;42.60
76607;DHT22;65498;50.916;4.698;2022-12-29T13:43:57;23.10;43.00
76607;DHT22;65498;50.916;4.698;2022-12-29T13:46:33;23.00;43.50
76607;DHT22;65498;50.916;4.698;2022-12-29T13:49:10;23.10;44.30
76607;DHT22;65498;50.916;4.698;2022-12-29T13:51:38;23.00;44.50
76607;DHT22;65498;50.916;4.698;2022-12-29T13:57:08;23.10;44.00
76607;DHT22;65498;50.916;4.698;2022-12-29T13:59:44;23.10;44.00
76607;DHT22;65498;50.916;4.698;2022-12-29T14:04:57;23.10;44.40
76607;DHT22;65498;50.916;4.698;2022-12-29T14:07:25;23.10;44.40
76607;DHT22;65498;50.916;4.698;2022-12-29T14:09:55;23.10;45.50
76607;DHT22;65498;50.916;4.698;2022-12-29T14:12:29;23.20;46.20
76607;DHT22;65498;50.916;4.698;2022-12-29T14:17:34;23.20;45.10
76607;DHT22;65498;50.916;4.698;2022-12-29T14:20:03;23.20;45.10
76607;DHT22;65498;50.916;4.698;2022-12-29T14:22:31;23.20;44.90
76607;DHT22;65498;50.916;4.698;2022-12-29T14:24:59;23.20;44.70
76607;DHT22;65498;50.916;4.698;2022-12-29T14:27:44;23.10;44.30
76607;DHT22;65498;50.916;4.698;2022-12-29T14:30:46;23.20;44.10
76607;DHT22;65498;50.916;4.698;2022-12-29T14:33:15;23.20;43.90
76607;DHT22;65498;50.916;4.698;2022-12-29T14:35:44;23.20;43.40
76607;DHT22;65498;50.916;4.698;2022-12-29T14:38:17;23.20;43.10
76607;DHT22;65498;50.916;4.698;2022-12-29T14:40:46;23.10;43.10
76607;DHT22;65498;50.916;4.698;2022-12-29T14:43:26;23.10;43.00
76607;DHT22;65498;50.916;4.698;2022-12-29T14:45:59;23.10;43.00
76607;DHT22;65498;50.916;4.698;2022-12-29T14:48:39;23.10;42.70
76607;DHT22;65498;50.916;4.698;2022-12-29T14:51:50;23.20;42.40
76607;DHT22;65498;50.916;4.698;2022-12-29T14:53:51;23.10;42.20
76607;DHT22;65498;50.916;4.698;2022-12-29T14:56:24;23.10;42.20
76607;DHT22;65498;50.916;4.698;2022-12-29T14:59:04;23.10;42.20
76607;DHT22;65498;50.916;4.698;2022-12-29T15:01:38;23.10;42.20
76607;DHT22;65498;50.916;4.698;2022-12-29T15:04:24;23.00;42.10
76607;DHT22;65498;50.916;4.698;2022-12-29T15:06:49;23.00;42.20
76607;DHT22;65498;50.916;4.698;2022-12-29T15:09:39;23.00;42.10
76607;DHT22;65498;50.916;4.698;2022-12-29T15:12:21;22.90;41.60
76607;DHT22;65498;50.916;4.698;2022-12-29T15:17:31;22.90;42.60
76607;DHT22;65498;50.916;4.698;2022-12-29T15:20:13;22.90;42.40
76607;DHT22;65498;50.916;4.698;2022-12-29T15:22:30;22.80;42.60
76607;DHT22;65498;50.916;4.698;2022-12-29T15:24:58;22.80;42.60
76607;DHT22;65498;50.916;4.698;2022-12-29T15:27:26;22.80;42.80
76607;DHT22;65498;50.916;4.698;2022-12-29T15:30:00;22.90;42.60
76607;DHT22;65498;50.916;4.698;2022-12-29T15:32:42;23.00;42.40
76607;DHT22;65498;50.916;4.698;2022-12-29T15:37:52;23.00;42.30
76607;DHT22;65498;50.916;4.698;2022-12-29T15:40:25;23.00;42.30
76607;DHT22;65498;50.916;4.698;2022-12-29T15:45:34;23.00;42.30
76607;DHT22;65498;50.916;4.698;2022-12-29T15:48:03;23.00;42.40
76607;DHT22;65498;50.916;4.698;2022-12-29T15:50:33;23.00;42.00
76607;DHT22;65498;50.916;4.698;2022-12-29T15:53:01;23.10;42.00
76607;DHT22;65498;50.916;4.698;2022-12-29T15:58:02;23.10;42.10
76607;DHT22;65498;50.916;4.698;2022-12-29T16:00:35;23.10;42.70
76607;DHT22;65498;50.916;4.698;2022-12-29T16:03:02;23.10;42.20
76607;DHT22;65498;50.916;4.698;2022-12-29T16:05:35;23.10;42.10
76607;DHT22;65498;50.916;4.698;2022-12-29T16:08:15;23.10;42.20
76607;DHT22;65498;50.916;4.698;2022-12-29T16:10:38;23.10;42.30
76607;DHT22;65498;50.916;4.698;2022-12-29T16:13:19;23.10;42.30
76607;DHT22;65498;50.916;4.698;2022-12-29T16:15:47;23.10;42.30
76607;DHT22;65498;50.916;4.698;2022-12-29T16:18:23;23.00;42.00
76607;DHT22;65498;50.916;4.698;2022-12-29T16:20:52;23.10;42.10
76607;DHT22;65498;50.916;4.698;2022-12-29T16:23:23;23.10;42.10
76607;DHT22;65498;50.916;4.698;2022-12-29T16:25:52;23.10;42.10
76607;DHT22;65498;50.916;4.698;2022-12-29T16:28:23;23.10;42.30
76607;DHT22;65498;50.916;4.698;2022-12-29T16:31:03;23.10;42.30
76607;DHT22;65498;50.916;4.698;2022-12-29T16:33:54;23.10;42.10
76607;DHT22;65498;50.916;4.698;2022-12-29T16:36:02;23.10;42.50
76607;DHT22;65498;50.916;4.698;2022-12-29T16:38:34;23.00;42.50
76607;DHT22;65498;50.916;4.698;2022-12-29T16:41:02;23.00;42.50
76607;DHT22;65498;50.916;4.698;2022-12-29T16:43:33;23.00;42.50
76607;DHT22;65498;50.916;4.698;2022-12-29T16:46:15;23.00;42.60
76607;DHT22;65498;50.916;4.698;2022-12-29T16:48:46;23.00;42.80
76607;DHT22;65498;50.916;4.698;2022-12-29T16:51:17;23.00;42.70
76607;DHT22;65498;50.916;4.698;2022-12-29T16:53:52;23.00;42.90
76607;DHT22;65498;50.916;4.698;2022-12-29T16:56:29;23.00;42.60
76607;DHT22;65498;50.916;4.698;2022-12-29T16:59:23;23.00;42.70
76607;DHT22;65498;50.916;4.698;2022-12-29T17:01:47;23.00;42.70
76607;DHT22;65498;50.916;4.698;2022-12-29T17:04:15;23.00;42.70
76607;DHT22;65498;50.916;4.698;2022-12-29T17:06:42;22.90;42.70
76607;DHT22;65498;50.916;4.698;2022-12-29T17:09:21;23.00;42.70
76607;DHT22;65498;50.916;4.698;2022-12-29T17:11:51;22.90;42.60
76607;DHT22;65498;50.916;4.698;2022-12-29T17:14:45;23.00;42.50
76607;DHT22;65498;50.916;4.698;2022-12-29T17:17:18;23.00;42.40
76607;DHT22;65498;50.916;4.698;2022-12-29T17:19:49;22.90;42.10
76607;DHT22;65498;50.916;4.698;2022-12-29T17:22:27;23.00;42.20
76607;DHT22;65498;50.916;4.698;2022-12-29T17:24:52;23.00;42.20
76607;DHT22;65498;50.916;4.698;2022-12-29T17:27:47;23.00;42.10
76607;DHT22;65498;50.916;4.698;2022-12-29T17:30:21;23.00;41.90
76607;DHT22;65498;50.916;4.698;2022-12-29T17:32:58;23.00;41.90
76607;DHT22;65498;50.916;4.698;2022-12-29T17:35:22;23.00;41.80
76607;DHT22;65498;50.916;4.698;2022-12-29T17:37:50;23.00;41.70
76607;DHT22;65498;50.916;4.698;2022-12-29T17:40:20;23.00;41.60
76607;DHT22;65498;50.916;4.698;2022-12-29T17:42:51;23.00;41.40
76607;DHT22;65498;50.916;4.698;2022-12-29T17:45:20;23.00;41.30
76607;DHT22;65498;50.916;4.698;2022-12-29T17:47:49;23.00;41.20
76607;DHT22;65498;50.916;4.698;2022-12-29T17:50:25;23.00;41.00
76607;DHT22;65498;50.916;4.698;2022-12-29T17:52:57;23.00;40.90
76607;DHT22;65498;50.916;4.698;2022-12-29T17:55:25;23.00;40.80
76607;DHT22;65498;50.916;4.698;2022-12-29T17:57:52;23.00;40.70